KFUL/FUL METAR and TAF weather

Enter ICAO airport designator
Station Type Date Time Source
KFUL METAR 2019/02/16 06:53 UTC NOAA

KFUL 160653Z AUTO 00000KT 10SM FEW027 BKN075 OVC100 11/09 A3009 RMK AO2 RAE02 SLP189 P0000 T01110094


Station Type Date Time Source
KFUL Decoded METAR 2019/02/16 06:53 UTC NOAA

FULLERTON MUNICIPAL AIRPORT , CA, United States (KFUL) 33-52N 117-59W 35M
Feb 16, 2019 - 01:53 AM EST / 2019.02.16 0653 UTC
Wind: Calm:0
Visibility: 10 mile(s):0
Sky conditions: overcast
Precipitation last hour: A trace
Temperature: 52.0 F (11.1 C)
Dew Point: 48.9 F (9.4 C)
Relative Humidity: 89%
Pressure (altimeter): 30.09 in. Hg (1018 hPa)
ob: KFUL 160653Z AUTO 00000KT 10SM FEW027 BKN075 OVC100 11/09 A3009 RMK AO2 RAE02 SLP189 P0000 T01110094
cycle: 7

Station Type Date Time Source
KFUL TAF UTC NOAA

Error!


Example: see airport list